Time;durP1;ratioP1;P1;durP2;ratioP2;P2;SDS_P1;SDS_P2;PMS_P1;PMS_P2;Temp;Humidity;BMP_temperature;BMP_pressure;BME280_temperature;BME280_humidity;BME280_pressure;Samples;Min_cycle;Max_cycle;Signal;HPM_P1;HPM_P2
2022/08/04 00:01:50;;;;;;;3.45;1.77;;;28.70;90.30;;;;;;5020150;28;20266;-42
2022/08/04 00:04:31;;;;;;;3.28;1.85;;;28.70;90.30;;;;;;5019183;28;20687;-42
2022/08/04 00:07:10;;;;;;;3.40;1.85;;;28.60;90.20;;;;;;5025830;28;20213;-43
2022/08/04 00:09:41;;;;;;;3.70;1.77;;;28.50;90.10;;;;;;5026811;28;20786;-43
2022/08/04 00:12:15;;;;;;;5.40;2.10;;;28.50;90.10;;;;;;5014640;28;20304;-43
2022/08/04 00:14:54;;;;;;;4.05;1.83;;;28.50;90.30;;;;;;5023740;28;20223;-43
2022/08/04 00:17:29;;;;;;;4.88;2.00;;;28.50;90.20;;;;;;5020724;28;20209;-43
2022/08/04 00:20:05;;;;;;;4.55;1.80;;;28.50;90.30;;;;;;5021491;28;20274;-44
2022/08/04 00:22:34;;;;;;;4.45;2.08;;;28.40;90.30;;;;;;5014103;28;20978;-43
2022/08/04 00:25:05;;;;;;;3.65;1.80;;;28.40;90.30;;;;;;5027792;28;20203;-43
2022/08/04 00:27:32;;;;;;;5.30;1.42;;;28.40;90.30;;;;;;5021959;28;20244;-45
2022/08/04 00:30:04;;;;;;;4.15;1.45;;;28.30;90.20;;;;;;5033862;28;20205;-44
2022/08/04 00:32:32;;;;;;;4.70;1.60;;;28.30;90.30;;;;;;5019860;28;20320;-43
2022/08/04 00:35:01;;;;;;;4.60;1.77;;;28.30;90.40;;;;;;5013564;28;20209;-43
2022/08/04 00:37:29;;;;;;;6.47;1.70;;;28.30;90.40;;;;;;5023975;28;20204;-43
2022/08/04 00:39:57;;;;;;;5.32;1.60;;;28.30;90.50;;;;;;5020102;28;20296;-43
2022/08/04 00:42:43;;;;;;;2.08;1.50;;;28.30;90.50;;;;;;5021535;28;20344;-43
2022/08/04 00:45:44;;;;;;;3.00;1.75;;;28.20;90.60;;;;;;5017200;28;20227;-43
2022/08/04 00:48:50;;;;;;;4.90;1.73;;;28.20;90.80;;;;;;5014137;28;20705;-43
2022/08/04 00:51:36;;;;;;;2.40;1.52;;;28.20;90.80;;;;;;5016867;28;20693;-43
2022/08/04 00:54:15;;;;;;;3.45;1.58;;;28.10;90.80;;;;;;5013174;28;20781;-44
2022/08/04 00:57:09;;;;;;;4.57;2.00;;;28.10;90.80;;;;;;5019336;28;20212;-44
2022/08/04 01:00:06;;;;;;;7.10;1.90;;;28.10;90.80;;;;;;5024702;28;20241;-43
2022/08/04 01:02:45;;;;;;;1.83;1.60;;;28.00;90.70;;;;;;5015701;28;20255;-43
2022/08/04 01:05:32;;;;;;;3.22;1.90;;;28.00;90.80;;;;;;5023031;28;20205;-43
2022/08/04 01:08:39;;;;;;;3.08;1.60;;;27.90;90.60;;;;;;5015614;28;20240;-43
2022/08/04 01:11:37;;;;;;;6.93;1.88;;;27.90;91.00;;;;;;5014048;28;20208;-43
2022/08/04 01:14:41;;;;;;;2.53;1.75;;;27.90;90.80;;;;;;5010811;28;20676;-43
2022/08/04 01:17:19;;;;;;;1.85;1.70;;;27.90;91.00;;;;;;5016681;28;20632;-43
2022/08/04 01:20:08;;;;;;;5.38;2.20;;;27.80;91.00;;;;;;5022213;28;20197;-43
2022/08/04 01:23:03;;;;;;;1.65;1.30;;;27.80;91.10;;;;;;5012049;28;20244;-43
2022/08/04 01:25:52;;;;;;;2.05;1.42;;;27.80;91.10;;;;;;5020656;28;20268;-45
2022/08/04 01:28:44;;;;;;;3.50;1.65;;;27.70;90.90;;;;;;5021550;28;20205;-43
2022/08/04 01:31:48;;;;;;;3.80;1.70;;;27.70;90.90;;;;;;5020938;28;20221;-44
2022/08/04 01:34:18;;;;;;;3.40;1.40;;;27.70;90.90;;;;;;5021473;28;20205;-44
2022/08/04 01:36:59;;;;;;;4.93;1.73;;;27.60;90.90;;;;;;5020131;28;20672;-43
2022/08/04 01:39:40;;;;;;;2.38;1.60;;;27.60;91.10;;;;;;5025232;28;20262;-43
2022/08/04 01:42:09;;;;;;;4.35;1.70;;;27.50;91.00;;;;;;5018366;28;20204;-43
2022/08/04 01:44:42;;;;;;;3.20;1.58;;;27.50;91.00;;;;;;5021949;28;20699;-42
2022/08/04 01:47:11;;;;;;;2.97;1.85;;;27.50;91.10;;;;;;5015058;28;20205;-43
2022/08/04 01:49:43;;;;;;;4.22;1.70;;;27.40;91.00;;;;;;4992449;28;20240;-44
2022/08/04 01:52:15;;;;;;;2.58;1.40;;;27.40;91.10;;;;;;5008229;28;20271;-44
2022/08/04 01:54:43;;;;;;;1.83;1.30;;;27.40;91.10;;;;;;5018518;28;20320;-43
2022/08/04 01:57:16;;;;;;;1.45;1.35;;;27.40;91.00;;;;;;5025842;28;20248;-44
2022/08/04 02:00:07;;;;;;;2.72;1.58;;;27.40;91.10;;;;;;5013699;28;20233;-43
2022/08/04 02:02:34;;;;;;;3.22;1.58;;;27.30;91.10;;;;;;5008505;28;20312;-40
2022/08/04 02:05:02;;;;;;;4.90;1.50;;;27.30;91.00;;;;;;5008324;28;20245;-40
2022/08/04 02:07:41;;;;;;;2.78;1.35;;;27.30;91.00;;;;;;5017230;28;20209;-40
2022/08/04 02:10:25;;;;;;;2.83;1.63;;;27.20;91.10;;;;;;5023364;28;20208;-40
2022/08/04 02:13:28;;;;;;;2.75;1.70;;;27.20;91.10;;;;;;5016430;28;20629;-40
2022/08/04 02:15:57;;;;;;;2.35;1.70;;;27.10;91.60;;;;;;5014974;28;20319;-40
2022/08/04 02:18:52;;;;;;;3.95;1.88;;;27.10;91.10;;;;;;5016428;28;20649;-40
2022/08/04 02:21:24;;;;;;;5.28;2.10;;;27.10;91.20;;;;;;5023634;28;20283;-40
2022/08/04 02:24:17;;;;;;;6.57;2.35;;;27.10;91.20;;;;;;5041408;28;20236;-40
2022/08/04 02:26:49;;;;;;;4.03;2.13;;;27.10;91.40;;;;;;5023549;28;20201;-40
2022/08/04 02:29:19;;;;;;;4.70;2.42;;;27.10;91.40;;;;;;5017355;28;20202;-40
2022/08/04 02:32:01;;;;;;;7.05;2.30;;;27.10;91.30;;;;;;5018300;28;20213;-43
2022/08/04 02:34:30;;;;;;;6.75;2.55;;;27.10;91.60;;;;;;5019685;28;20584;-43
2022/08/04 02:37:03;;;;;;;6.68;2.60;;;27.10;91.40;;;;;;5017433;28;20263;-43
2022/08/04 02:39:36;;;;;;;4.53;2.42;;;27.10;92.00;;;;;;5013743;28;20201;-42
2022/08/04 02:42:15;;;;;;;4.03;2.40;;;27.00;91.60;;;;;;5013674;28;20208;-43
2022/08/04 02:44:48;;;;;;;4.88;2.75;;;27.00;91.60;;;;;;5025406;28;20269;-43
2022/08/04 02:47:24;;;;;;;8.07;2.80;;;27.00;92.00;;;;;;5022965;28;20211;-43
2022/08/04 02:50:15;;;;;;;5.07;2.55;;;27.00;91.80;;;;;;5010483;28;20197;-43
2022/08/04 02:52:59;;;;;;;7.07;3.20;;;27.00;91.70;;;;;;5019296;28;20216;-44
2022/08/04 02:55:28;;;;;;;6.10;2.80;;;26.90;91.80;;;;;;5016931;28;20734;-43
2022/08/04 02:57:58;;;;;;;6.82;3.05;;;26.90;91.80;;;;;;5019747;28;20232;-39
2022/08/04 03:00:28;;;;;;;4.93;3.17;;;26.90;91.80;;;;;;5026048;28;20241;-38
2022/08/04 03:03:04;;;;;;;6.60;3.47;;;26.90;91.90;;;;;;5014807;28;20223;-38
2022/08/04 03:05:37;;;;;;;7.63;3.40;;;26.90;92.10;;;;;;5015724;28;20212;-38
2022/08/04 03:08:55;;;;;;;6.95;3.35;;;26.80;92.00;;;;;;5012475;28;20212;-38
2022/08/04 03:11:43;;;;;;;6.32;3.00;;;26.80;92.20;;;;;;5013902;28;20317;-39
2022/08/04 03:14:37;;;;;;;5.68;2.92;;;26.80;92.20;;;;;;5020707;28;20304;-38
2022/08/04 03:17:22;;;;;;;8.80;3.28;;;26.70;92.00;;;;;;5006607;28;20221;-38
2022/08/04 03:20:21;;;;;;;7.00;3.55;;;26.70;92.10;;;;;;5012978;28;20205;-38
2022/08/04 03:23:30;;;;;;;4.95;3.10;;;26.70;92.40;;;;;;5007294;28;20200;-38
2022/08/04 03:26:22;;;;;;;7.88;3.13;;;26.60;92.60;;;;;;5005909;28;20579;-39
2022/08/04 03:29:01;;;;;;;6.90;3.13;;;26.60;92.50;;;;;;5013904;28;20266;-38
2022/08/04 03:32:23;;;;;;;4.50;2.78;;;26.60;92.30;;;;;;5026127;28;20205;-38
2022/08/04 03:35:09;;;;;;;5.68;3.10;;;26.60;92.60;;;;;;5002728;28;20202;-38
2022/08/04 03:38:10;;;;;;;7.20;3.13;;;26.50;92.20;;;;;;5011600;28;20205;-39
2022/08/04 03:41:22;;;;;;;5.45;3.00;;;26.50;92.40;;;;;;5016354;28;20684;-38
2022/08/04 03:44:17;;;;;;;4.93;3.22;;;26.50;92.60;;;;;;5012886;28;20220;-38
2022/08/04 03:47:27;;;;;;;5.45;3.33;;;26.40;92.40;;;;;;5020580;28;20204;-38
2022/08/04 03:50:31;;;;;;;6.90;3.10;;;26.40;92.70;;;;;;5009395;28;20727;-39
2022/08/04 03:53:15;;;;;;;4.80;3.42;;;26.40;92.60;;;;;;5016999;28;20289;-38
2022/08/04 03:56:01;;;;;;;7.32;3.53;;;26.30;92.40;;;;;;5012416;28;20204;-38
2022/08/04 03:58:53;;;;;;;5.22;3.05;;;26.30;92.40;;;;;;5008739;28;20252;-39
2022/08/04 04:01:34;;;;;;;5.07;3.42;;;26.30;92.60;;;;;;5013701;28;20205;-38
2022/08/04 04:04:29;;;;;;;5.68;3.25;;;26.30;92.70;;;;;;5021653;28;20226;-39
2022/08/04 04:07:30;;;;;;;6.47;3.50;;;26.30;92.50;;;;;;5010880;28;20936;-38
2022/08/04 04:10:14;;;;;;;5.75;3.40;;;26.30;92.70;;;;;;5025221;28;20246;-38
2022/08/04 04:13:20;;;;;;;7.50;3.28;;;26.30;92.60;;;;;;5013149;28;20419;-39
2022/08/04 04:16:43;;;;;;;6.70;3.55;;;26.20;92.80;;;;;;5015867;28;20718;-38
2022/08/04 04:19:31;;;;;;;5.20;3.25;;;26.30;92.60;;;;;;4985493;28;20744;-38
2022/08/04 04:22:12;;;;;;;6.72;3.65;;;26.20;92.50;;;;;;5016955;28;20201;-38
2022/08/04 04:24:57;;;;;;;9.63;4.13;;;26.20;92.60;;;;;;5024616;28;20228;-38
2022/08/04 04:27:30;;;;;;;9.80;4.25;;;26.30;92.90;;;;;;5007730;28;20585;-39
2022/08/04 04:30:02;;;;;;;6.55;3.45;;;26.30;92.60;;;;;;5023606;28;20721;-38
2022/08/04 04:33:06;;;;;;;9.57;3.92;;;26.30;92.50;;;;;;5020769;28;20263;-38
2022/08/04 04:35:51;;;;;;;10.35;3.65;;;26.30;92.80;;;;;;5017484;28;20738;-38
2022/08/04 04:38:51;;;;;;;6.20;3.83;;;26.20;92.80;;;;;;5023855;28;20197;-38
2022/08/04 04:41:44;;;;;;;5.32;3.42;;;26.20;92.70;;;;;;5021423;28;20205;-38
2022/08/04 04:44:32;;;;;;;6.55;3.55;;;26.20;92.90;;;;;;5012032;28;20210;-39
2022/08/04 04:47:08;;;;;;;8.52;3.65;;;26.10;92.70;;;;;;5020020;28;20213;-38
2022/08/04 04:49:56;;;;;;;6.63;3.25;;;26.10;92.70;;;;;;5031421;28;20300;-38
2022/08/04 04:52:45;;;;;;;6.88;3.95;;;26.10;92.70;;;;;;5015804;28;20260;-38
2022/08/04 04:55:25;;;;;;;6.38;2.97;;;26.10;92.80;;;;;;5006794;28;20231;-38
2022/08/04 04:58:00;;;;;;;5.47;3.00;;;26.10;92.80;;;;;;5017019;28;20295;-38
2022/08/04 05:00:45;;;;;;;8.88;3.50;;;26.10;92.70;;;;;;5026329;28;20225;-38
2022/08/04 05:03:25;;;;;;;6.10;3.25;;;26.10;92.80;;;;;;5023247;28;20368;-38
2022/08/04 05:05:58;;;;;;;6.85;3.08;;;26.10;92.90;;;;;;5012147;28;20643;-38
2022/08/04 05:08:47;;;;;;;5.65;3.03;;;26.10;92.80;;;;;;5014855;28;20323;-38
2022/08/04 05:11:49;;;;;;;10.48;3.08;;;26.10;92.80;;;;;;5013224;28;20196;-38
2022/08/04 05:14:20;;;;;;;7.25;3.17;;;26.10;93.00;;;;;;5017097;28;20585;-38
2022/08/04 05:17:22;;;;;;;8.00;3.47;;;26.10;92.70;;;;;;5010427;28;20635;-38
2022/08/04 05:20:04;;;;;;;3.83;2.70;;;26.20;93.10;;;;;;5013946;28;20327;-38
2022/08/04 05:22:34;;;;;;;6.57;3.08;;;26.20;92.70;;;;;;5015073;28;20217;-38
2022/08/04 05:25:31;;;;;;;5.75;2.90;;;26.20;92.70;;;;;;5013239;28;20643;-38
2022/08/04 05:28:08;;;;;;;5.75;2.92;;;26.20;93.00;;;;;;5013607;28;20203;-38
2022/08/04 05:30:48;;;;;;;3.75;2.60;;;26.10;92.80;;;;;;5008763;28;20217;-38
2022/08/04 05:33:24;;;;;;;5.70;2.72;;;26.10;92.80;;;;;;5017138;28;20206;-38
2022/08/04 05:35:59;;;;;;;4.55;2.22;;;26.10;92.80;;;;;;5011791;28;20236;-38
2022/08/04 05:38:51;;;;;;;6.30;2.35;;;26.10;92.80;;;;;;5026749;28;20278;-38
2022/08/04 05:41:21;;;;;;;6.38;2.53;;;26.10;92.80;;;;;;5021213;28;20260;-38
2022/08/04 05:43:48;;;;;;;5.18;2.47;;;26.10;92.80;;;;;;5013858;28;20248;-38
2022/08/04 05:46:17;;;;;;;4.88;2.58;;;26.10;92.80;;;;;;5029595;28;20881;-38
2022/08/04 05:48:45;;;;;;;5.43;2.40;;;26.20;92.90;;;;;;5013988;28;20198;-38
2022/08/04 05:51:14;;;;;;;5.95;2.58;;;26.20;92.90;;;;;;5013484;28;20204;-38
2022/08/04 05:53:43;;;;;;;6.63;3.15;;;26.20;93.00;;;;;;5010839;28;20592;-38
2022/08/04 05:56:15;;;;;;;5.85;2.80;;;26.20;93.00;;;;;;5016529;28;20715;-38
2022/08/04 05:58:45;;;;;;;3.20;2.53;;;26.20;93.10;;;;;;5014783;28;20212;-39
2022/08/04 06:01:15;;;;;;;9.15;3.25;;;26.30;93.10;;;;;;5018293;28;20235;-38
2022/08/04 06:03:47;;;;;;;5.05;2.75;;;26.30;93.00;;;;;;5018834;28;20237;-38
2022/08/04 06:06:17;;;;;;;6.15;3.25;;;26.30;93.20;;;;;;5017587;28;20296;-38
2022/08/04 06:08:48;;;;;;;5.90;2.35;;;26.30;93.20;;;;;;5008518;28;20206;-38
2022/08/04 06:11:17;;;;;;;7.93;2.83;;;26.30;93.20;;;;;;5009464;28;20205;-38
2022/08/04 06:13:52;;;;;;;4.90;2.28;;;26.30;93.20;;;;;;5025318;28;20225;-38
2022/08/04 06:16:22;;;;;;;5.30;2.30;;;26.40;93.30;;;;;;5017074;28;20205;-38
2022/08/04 06:19:05;;;;;;;3.65;2.47;;;26.40;93.30;;;;;;5013527;28;20278;-38
2022/08/04 06:21:55;;;;;;;5.28;2.22;;;26.50;93.30;;;;;;5017354;28;20624;-38
2022/08/04 06:24:27;;;;;;;5.15;2.20;;;26.50;93.20;;;;;;5021778;28;20223;-38
2022/08/04 06:26:58;;;;;;;5.82;2.70;;;26.50;93.30;;;;;;5021392;28;20255;-38
2022/08/04 06:29:34;;;;;;;5.82;2.70;;;26.60;93.30;;;;;;5021021;28;20611;-38
2022/08/04 06:32:22;;;;;;;7.72;2.90;;;26.60;93.30;;;;;;5017079;28;20215;-35
2022/08/04 06:35:03;;;;;;;7.38;2.53;;;26.60;93.30;;;;;;5020530;28;20256;-38
2022/08/04 06:37:31;;;;;;;6.30;2.50;;;26.60;93.30;;;;;;5017148;28;20289;-36
2022/08/04 06:40:12;;;;;;;4.63;2.28;;;26.60;93.40;;;;;;5022107;28;20223;-37
2022/08/04 06:43:03;;;;;;;5.57;2.60;;;26.60;93.50;;;;;;5012720;28;20237;-37
2022/08/04 06:45:34;;;;;;;6.70;2.88;;;26.60;93.50;;;;;;5010361;28;20244;-37
2022/08/04 06:48:04;;;;;;;5.20;2.58;;;26.60;93.50;;;;;;5028614;28;20209;-37
2022/08/04 06:50:34;;;;;;;6.10;2.08;;;26.60;93.60;;;;;;5011828;28;20209;-37
2022/08/04 06:53:23;;;;;;;5.38;2.55;;;26.60;93.50;;;;;;5012938;28;20288;-37
2022/08/04 06:55:51;;;;;;;4.05;2.25;;;26.60;93.40;;;;;;5015667;28;20616;-37
2022/08/04 06:58:22;;;;;;;6.03;2.20;;;26.70;93.60;;;;;;5012541;28;20307;-37
2022/08/04 07:00:50;;;;;;;4.93;2.83;;;26.70;93.50;;;;;;5034625;28;20208;-37
2022/08/04 07:03:18;;;;;;;5.75;2.53;;;26.70;93.50;;;;;;5007954;28;20287;-42
2022/08/04 07:05:48;;;;;;;5.95;2.55;;;26.80;93.60;;;;;;5020709;28;20287;-38
2022/08/04 07:08:20;;;;;;;8.55;3.10;;;26.80;93.90;;;;;;5011046;28;20524;-37
2022/08/04 07:10:51;;;;;;;5.65;2.70;;;26.80;93.70;;;;;;5013571;28;20673;-36
2022/08/04 07:13:21;;;;;;;6.10;2.50;;;26.80;93.60;;;;;;5023472;28;20676;-37
2022/08/04 07:15:52;;;;;;;2.95;2.03;;;26.90;93.80;;;;;;5012424;28;20307;-36
2022/08/04 07:18:22;;;;;;;8.60;2.30;;;26.90;93.60;;;;;;5028394;28;20205;-36
2022/08/04 07:20:50;;;;;;;5.22;2.08;;;26.90;93.60;;;;;;5010998;28;20216;-39
2022/08/04 07:23:25;;;;;;;5.72;2.40;;;26.90;93.60;;;;;;5020103;28;20221;-39
2022/08/04 07:25:54;;;;;;;2.25;1.60;;;26.90;93.60;;;;;;5016345;28;20372;-38
2022/08/04 07:28:40;;;;;;;3.88;1.63;;;26.90;93.60;;;;;;5019641;28;20223;-38
2022/08/04 07:31:15;;;;;;;4.43;1.75;;;27.00;93.60;;;;;;5016238;28;20206;-39
2022/08/04 07:34:05;;;;;;;7.55;1.95;;;27.10;93.60;;;;;;5024440;28;20212;-42
2022/08/04 07:36:53;;;;;;;3.55;1.85;;;27.10;93.60;;;;;;5022733;28;20679;-39
2022/08/04 07:39:28;;;;;;;5.30;1.70;;;27.20;93.60;;;;;;5012206;28;20231;-39
2022/08/04 07:42:00;;;;;;;3.45;1.60;;;27.20;93.60;;;;;;5012411;28;20563;-39
2022/08/04 07:44:32;;;;;;;4.13;1.80;;;27.30;93.60;;;;;;5023509;28;20234;-39
2022/08/04 07:47:02;;;;;;;5.43;1.98;;;27.30;93.60;;;;;;5026567;28;20331;-36
2022/08/04 07:49:29;;;;;;;4.10;1.77;;;27.30;93.70;;;;;;5017661;28;20251;-36
2022/08/04 07:52:17;;;;;;;5.03;1.98;;;27.40;93.70;;;;;;5021493;28;20644;-39
2022/08/04 07:54:45;;;;;;;5.97;2.08;;;27.40;94.10;;;;;;5020947;28;20695;-38
2022/08/04 07:57:19;;;;;;;5.43;1.77;;;27.40;93.70;;;;;;5011885;28;20204;-39
2022/08/04 08:00:09;;;;;;;5.05;1.80;;;27.50;93.70;;;;;;5014034;28;20241;-39
2022/08/04 08:02:40;;;;;;;5.60;1.88;;;27.50;93.80;;;;;;5014035;28;20679;-39
2022/08/04 08:05:13;;;;;;;6.95;2.17;;;27.50;93.90;;;;;;5021720;28;20287;-39
2022/08/04 08:07:46;;;;;;;4.10;1.83;;;27.50;93.90;;;;;;5016534;28;20220;-39
2022/08/04 08:10:22;;;;;;;5.93;1.75;;;27.50;93.90;;;;;;5035917;28;20235;-39
2022/08/04 08:12:51;;;;;;;9.60;1.98;;;27.50;93.80;;;;;;5021626;28;20251;-39
2022/08/04 08:15:19;;;;;;;5.80;2.20;;;27.60;94.00;;;;;;5008878;28;20217;-39
2022/08/04 08:17:47;;;;;;;5.78;1.90;;;27.70;94.10;;;;;;5018106;28;20213;-39
2022/08/04 08:20:30;;;;;;;8.00;2.20;;;27.70;94.10;;;;;;5026227;28;20200;-39
2022/08/04 08:23:00;;;;;;;5.38;1.90;;;27.70;94.20;;;;;;5026878;28;20240;-39
2022/08/04 08:25:32;;;;;;;4.90;1.90;;;27.70;93.90;;;;;;5025726;28;20600;-39
2022/08/04 08:28:02;;;;;;;5.60;2.10;;;27.70;94.10;;;;;;5020431;28;20213;-39
2022/08/04 08:30:31;;;;;;;6.50;2.00;;;27.80;94.20;;;;;;5021873;28;20212;-39
2022/08/04 08:33:06;;;;;;;8.18;1.95;;;27.70;94.10;;;;;;5019710;28;20200;-39
2022/08/04 08:35:58;;;;;;;5.50;2.10;;;27.70;94.00;;;;;;5011375;28;20622;-39
2022/08/04 08:38:47;;;;;;;10.63;2.33;;;27.80;94.20;;;;;;5018609;28;20327;-39
2022/08/04 08:41:26;;;;;;;8.48;2.10;;;27.80;94.20;;;;;;5026247;28;20263;-39
2022/08/04 08:44:12;;;;;;;5.40;2.10;;;27.80;94.30;;;;;;5029763;28;20258;-39
2022/08/04 08:47:26;;;;;;;8.38;3.53;;;27.80;94.30;;;;;;5022013;28;20684;-39
2022/08/04 08:50:09;;;;;;;8.13;2.70;;;27.80;94.30;;;;;;5022349;28;20297;-39
2022/08/04 08:53:31;;;;;;;7.13;2.70;;;27.70;94.40;;;;;;5020382;28;20220;-39
2022/08/04 08:56:21;;;;;;;10.05;2.92;;;27.80;94.90;;;;;;4983504;28;20224;-39
2022/08/04 08:59:18;;;;;;;8.23;3.15;;;27.80;94.30;;;;;;5018348;28;20700;-39
2022/08/04 09:01:58;;;;;;;8.38;3.05;;;27.80;94.40;;;;;;5015135;28;20564;-39
2022/08/04 09:04:41;;;;;;;8.60;3.10;;;27.80;94.60;;;;;;5025974;28;20311;-39
2022/08/04 09:07:42;;;;;;;8.35;2.50;;;27.80;94.40;;;;;;5021301;28;20215;-37
2022/08/04 09:10:43;;;;;;;7.32;2.75;;;27.70;94.40;;;;;;5018758;28;20209;-37
2022/08/04 09:13:25;;;;;;;8.07;2.75;;;27.80;94.50;;;;;;5028377;28;20200;-37
2022/08/04 09:16:10;;;;;;;6.88;2.60;;;27.70;94.60;;;;;;5019260;28;20258;-37
2022/08/04 09:19:12;;;;;;;7.72;2.67;;;27.70;94.50;;;;;;5022692;28;20894;-37
2022/08/04 09:22:18;;;;;;;5.88;2.50;;;27.70;94.50;;;;;;5023423;28;20212;-37
2022/08/04 09:25:06;;;;;;;7.43;2.97;;;27.70;94.50;;;;;;5021011;28;20775;-37
2022/08/04 09:27:49;;;;;;;5.13;2.28;;;27.60;94.40;;;;;;5025887;28;20240;-37
2022/08/04 09:30:39;;;;;;;8.05;2.97;;;27.60;94.60;;;;;;5039562;28;20208;-36
2022/08/04 09:33:20;;;;;;;6.93;3.28;;;27.60;94.50;;;;;;5030980;28;20286;-37
2022/08/04 09:36:22;;;;;;;6.57;3.38;;;27.60;94.90;;;;;;5029797;28;21026;-36
2022/08/04 09:38:53;;;;;;;7.72;3.55;;;27.60;94.90;;;;;;5039077;28;20212;-36
2022/08/04 09:41:33;;;;;;;7.88;3.47;;;27.60;95.00;;;;;;5030118;28;20256;-36
2022/08/04 09:44:54;;;;;;;6.00;3.42;;;27.50;95.00;;;;;;5010121;28;20896;-35
2022/08/04 09:47:53;;;;;;;7.53;3.67;;;27.50;95.20;;;;;;5010483;28;20204;-35
2022/08/04 09:50:44;;;;;;;7.10;3.72;;;27.50;95.00;;;;;;5009962;28;20206;-37
2022/08/04 09:54:00;;;;;;;7.32;3.78;;;27.40;95.20;;;;;;5027101;28;20221;-37
2022/08/04 09:56:36;;;;;;;7.18;4.05;;;27.40;95.30;;;;;;4992814;28;20357;-38
2022/08/04 09:59:21;;;;;;;7.03;4.22;;;27.40;95.30;;;;;;5008097;28;21035;-38
2022/08/04 10:02:02;;;;;;;9.70;5.43;;;27.40;95.20;;;;;;5027152;28;20299;-38
2022/08/04 10:04:34;;;;;;;7.20;5.40;;;27.50;95.70;;;;;;5027742;28;20243;-37
2022/08/04 10:07:35;;;;;;;7.10;5.28;;;27.50;95.60;;;;;;5011392;28;20201;-38
2022/08/04 10:10:16;;;;;;;10.00;6.18;;;27.60;95.70;;;;;;5027339;28;20215;-38
2022/08/04 10:12:55;;;;;;;9.75;5.82;;;27.70;95.80;;;;;;5017751;28;20296;-38
2022/08/04 10:15:39;;;;;;;13.70;6.53;;;27.70;96.10;;;;;;5019611;28;20212;-37
2022/08/04 10:18:22;;;;;;;10.27;6.05;;;27.80;96.00;;;;;;5029332;28;20258;-40
2022/08/04 10:21:14;;;;;;;9.98;6.50;;;27.80;95.80;;;;;;5029354;28;20220;-37
2022/08/04 10:23:44;;;;;;;11.02;6.43;;;27.90;95.70;;;;;;5029098;28;20201;-37
2022/08/04 10:26:44;;;;;;;9.60;6.20;;;27.90;95.80;;;;;;5029205;28;20594;-37
2022/08/04 10:29:29;;;;;;;10.60;7.13;;;27.90;96.00;;;;;;5030708;28;20220;-37
2022/08/04 10:32:13;;;;;;;14.20;7.50;;;27.90;96.00;;;;;;5036545;28;20619;-37
2022/08/04 10:35:04;;;;;;;12.57;6.85;;;27.90;95.80;;;;;;5009084;28;20328;-34
2022/08/04 10:37:55;;;;;;;10.70;6.10;;;27.90;95.70;;;;;;5008725;28;20242;-34
2022/08/04 10:41:00;;;;;;;10.63;6.38;;;27.90;95.70;;;;;;5009078;28;20625;-34
2022/08/04 10:43:46;;;;;;;9.65;6.40;;;27.90;95.80;;;;;;5008042;28;20727;-34
2022/08/04 10:46:25;;;;;;;8.23;6.00;;;27.90;95.90;;;;;;5009457;28;20716;-34
2022/08/04 10:49:01;;;;;;;8.02;5.68;;;27.90;95.70;;;;;;5013488;28;20193;-34
2022/08/04 10:51:49;;;;;;;10.00;6.93;;;27.90;95.80;;;;;;5026456;28;20578;-34
2022/08/04 10:54:56;;;;;;;11.15;6.63;;;28.00;96.00;;;;;;5017826;28;20300;-34
2022/08/04 10:57:32;;;;;;;12.02;6.80;;;28.00;96.10;;;;;;5028571;28;20211;-35
2022/08/04 11:00:08;;;;;;;9.82;6.65;;;28.10;96.10;;;;;;5028371;28;20764;-34
2022/08/04 11:02:49;;;;;;;11.27;6.78;;;28.10;95.90;;;;;;5028027;28;20292;-34
2022/08/04 11:05:53;;;;;;;10.25;6.50;;;28.10;95.90;;;;;;5027485;28;20576;-35
2022/08/04 11:08:34;;;;;;;12.25;7.10;;;28.10;96.00;;;;;;5009084;28;20205;-34
2022/08/04 11:11:08;;;;;;;10.73;7.13;;;28.10;96.10;;;;;;5008981;28;20200;-34
2022/08/04 11:14:02;;;;;;;13.13;6.63;;;28.20;96.00;;;;;;5018799;28;20292;-34
2022/08/04 11:16:56;;;;;;;10.25;6.05;;;28.20;95.80;;;;;;5007028;28;20245;-34
2022/08/04 11:19:35;;;;;;;10.07;6.30;;;28.20;95.70;;;;;;5009143;28;20638;-35
2022/08/04 11:22:19;;;;;;;10.73;7.70;;;28.20;95.80;;;;;;5008926;28;20654;-36
2022/08/04 11:25:13;;;;;;;11.15;6.80;;;28.20;95.80;;;;;;5008761;28;20613;-36
2022/08/04 11:27:58;;;;;;;10.07;6.65;;;28.30;96.00;;;;;;5013231;28;20193;-37
2022/08/04 11:30:34;;;;;;;9.98;6.25;;;28.40;95.90;;;;;;5040839;28;20687;-39
2022/08/04 11:33:22;;;;;;;10.13;6.50;;;28.40;96.00;;;;;;5047537;28;20196;-37
2022/08/04 11:36:04;;;;;;;9.18;6.70;;;28.50;96.00;;;;;;5047724;28;20674;-38
2022/08/04 11:38:56;;;;;;;10.13;6.43;;;28.60;95.90;;;;;;5009884;28;20304;-37
2022/08/04 11:41:52;;;;;;;9.52;5.97;;;28.70;95.80;;;;;;5026284;28;20307;-38
2022/08/04 11:44:35;;;;;;;12.35;7.45;;;28.70;95.80;;;;;;5018686;28;20533;-37
2022/08/04 11:47:10;;;;;;;12.23;6.50;;;28.80;95.80;;;;;;5028310;28;20232;-37
2022/08/04 11:49:46;;;;;;;13.02;9.02;;;28.80;95.80;;;;;;5012003;28;20737;-38
2022/08/04 11:52:26;;;;;;;12.20;6.82;;;28.80;96.00;;;;;;5007432;28;20205;-37
2022/08/04 11:54:56;;;;;;;7.57;5.65;;;28.80;95.90;;;;;;5008599;28;20264;-37
2022/08/04 11:57:24;;;;;;;8.85;5.32;;;28.90;95.70;;;;;;5017933;28;20629;-37
2022/08/04 12:00:09;;;;;;;11.02;6.03;;;29.00;95.60;;;;;;5027792;28;20249;-38
2022/08/04 12:02:55;;;;;;;10.00;5.15;;;29.00;95.70;;;;;;5027058;28;20230;-37
2022/08/04 12:05:39;;;;;;;11.07;5.90;;;28.90;95.70;;;;;;5031720;28;20259;-37
2022/08/04 12:08:43;;;;;;;9.15;5.85;;;29.00;95.60;;;;;;5031732;28;20246;-38
2022/08/04 12:11:42;;;;;;;8.30;5.90;;;29.00;95.70;;;;;;5031565;28;20208;-38
2022/08/04 12:14:20;;;;;;;10.18;5.97;;;29.00;95.70;;;;;;5022966;28;20230;-38
2022/08/04 12:17:03;;;;;;;11.27;6.43;;;29.10;95.60;;;;;;5012083;28;20287;-38
2022/08/04 12:19:50;;;;;;;13.25;6.93;;;29.10;95.50;;;;;;5011593;28;20618;-38
2022/08/04 12:22:35;;;;;;;13.02;7.57;;;29.10;95.50;;;;;;5014738;28;20213;-38
2022/08/04 12:25:10;;;;;;;11.88;7.82;;;29.20;95.30;;;;;;5018045;28;20209;-38
2022/08/04 12:27:50;;;;;;;11.15;7.70;;;29.20;95.20;;;;;;5029585;28;20293;-38
2022/08/04 12:30:18;;;;;;;15.20;9.15;;;29.10;95.30;;;;;;5041478;28;20234;-38
2022/08/04 12:33:21;;;;;;;16.67;9.30;;;29.10;95.30;;;;;;5011011;28;20217;-38
2022/08/04 12:36:00;;;;;;;13.55;8.43;;;29.20;95.50;;;;;;5011309;28;20228;-38
2022/08/04 12:38:47;;;;;;;15.27;8.00;;;29.20;95.50;;;;;;5011847;28;20220;-37
2022/08/04 12:41:25;;;;;;;12.18;7.38;;;29.20;95.40;;;;;;5011582;28;20224;-38
2022/08/04 12:43:54;;;;;;;12.18;7.55;;;29.30;95.40;;;;;;5011498;28;20204;-38
2022/08/04 12:46:23;;;;;;;11.23;7.20;;;29.20;95.40;;;;;;5027579;28;20236;-38
2022/08/04 12:48:51;;;;;;;8.65;6.18;;;29.30;95.20;;;;;;5028610;28;20651;-38
2022/08/04 12:51:19;;;;;;;12.60;6.00;;;29.30;95.30;;;;;;5030738;28;20307;-38
2022/08/04 12:54:09;;;;;;;9.63;6.00;;;29.20;95.20;;;;;;5019765;28;20518;-38
2022/08/04 12:56:39;;;;;;;13.38;6.68;;;29.30;94.40;;;;;;5011535;28;20546;-38
2022/08/04 12:59:08;;;;;;;9.32;5.80;;;29.30;94.70;;;;;;5010991;28;20248;-38
2022/08/04 13:01:48;;;;;;;9.75;5.40;;;29.30;94.80;;;;;;5010278;28;20324;-40
2022/08/04 13:04:41;;;;;;;10.60;4.35;;;29.30;94.90;;;;;;5013763;28;20714;-40
2022/08/04 13:07:23;;;;;;;10.50;4.93;;;29.30;95.00;;;;;;5030820;28;20360;-37
2022/08/04 13:09:52;;;;;;;7.32;5.03;;;29.30;95.10;;;;;;5030701;28;20290;-39
2022/08/04 13:12:28;;;;;;;7.32;4.88;;;29.30;95.10;;;;;;5030693;28;20247;-39
2022/08/04 13:15:09;;;;;;;6.32;4.65;;;29.40;95.20;;;;;;5030324;28;20208;-39
2022/08/04 13:18:10;;;;;;;6.85;3.92;;;29.40;95.50;;;;;;5030996;28;20898;-39
2022/08/04 13:20:43;;;;;;;4.85;3.50;;;29.50;95.10;;;;;;5044719;28;20706;-39
2022/08/04 13:23:16;;;;;;;5.57;3.60;;;29.50;95.00;;;;;;5014027;28;20213;-39
2022/08/04 13:25:50;;;;;;;7.32;3.55;;;29.60;95.10;;;;;;5010879;28;20320;-39
2022/08/04 13:28:41;;;;;;;6.97;3.60;;;29.60;95.10;;;;;;5010723;28;20198;-39
2022/08/04 13:31:14;;;;;;;4.07;2.70;;;29.60;94.90;;;;;;5047408;28;20212;-39
2022/08/04 13:33:46;;;;;;;4.43;2.67;;;29.70;95.00;;;;;;5043414;28;20693;-39
2022/08/04 13:36:16;;;;;;;5.50;3.42;;;29.70;95.00;;;;;;5019905;28;20236;-39
2022/08/04 13:38:54;;;;;;;4.40;3.00;;;29.70;94.80;;;;;;5014747;28;20215;-36
2022/08/04 13:41:22;;;;;;;7.22;2.97;;;29.70;94.80;;;;;;5030220;28;20227;-36
2022/08/04 13:43:57;;;;;;;6.05;4.05;;;29.80;94.90;;;;;;5030138;28;20213;-39
2022/08/04 13:47:21;;;;;;;4.60;3.50;;;29.80;94.70;;;;;;5030200;28;20603;-39
2022/08/04 13:50:07;;;;;;;6.45;3.50;;;29.90;94.90;;;;;;5021696;28;20247;-39
2022/08/04 13:52:39;;;;;;;7.70;3.83;;;29.90;94.80;;;;;;5029484;28;20576;-39
2022/08/04 13:55:26;;;;;;;4.65;3.30;;;30.00;94.70;;;;;;5029549;28;20714;-39
2022/08/04 13:58:08;;;;;;;8.20;3.75;;;30.00;94.90;;;;;;5010144;28;20244;-39
2022/08/04 14:00:46;;;;;;;8.43;3.45;;;30.00;95.00;;;;;;5010220;28;20239;-39
2022/08/04 14:03:25;;;;;;;8.45;3.50;;;30.10;94.80;;;;;;5008405;28;20189;-39